createdAt,value
2022-09-24T00:01:48.004Z,10.40
2022-09-24T00:04:17.420Z,10.50
2022-09-24T00:06:47.516Z,10.50
2022-09-24T00:09:19.085Z,10.50
2022-09-24T00:11:47.239Z,10.50
2022-09-24T00:14:15.278Z,10.50
2022-09-24T00:16:44.989Z,10.50
2022-09-24T00:19:14.172Z,10.50
2022-09-24T00:21:44.363Z,10.50
2022-09-24T00:24:35.783Z,10.50
2022-09-24T00:27:04.451Z,10.50
2022-09-24T00:29:33.933Z,10.50
2022-09-24T00:32:02.509Z,10.50
2022-09-24T00:34:31.312Z,10.50
2022-09-24T00:37:00.671Z,10.50
2022-09-24T00:39:28.725Z,10.60
2022-09-24T00:41:56.672Z,10.50
2022-09-24T00:44:57.875Z,10.60
2022-09-24T00:47:46.761Z,10.60
2022-09-24T00:50:19.176Z,10.60
2022-09-24T00:52:54.167Z,10.60
2022-09-24T00:55:24.919Z,10.60
2022-09-24T00:57:56.291Z,10.50
2022-09-24T01:00:24.570Z,10.50
2022-09-24T01:02:56.104Z,10.60
2022-09-24T01:05:24.263Z,10.60
2022-09-24T01:07:54.565Z,10.50
2022-09-24T01:10:48.887Z,10.50
2022-09-24T01:13:29.518Z,10.50
2022-09-24T01:16:03.255Z,10.50
2022-09-24T01:18:40.372Z,10.50
2022-09-24T01:21:26.292Z,10.50
2022-09-24T01:24:30.107Z,10.50
2022-09-24T01:27:08.891Z,10.50
2022-09-24T01:29:45.854Z,10.50
2022-09-24T01:32:20.561Z,10.50
2022-09-24T01:34:53.444Z,10.50
2022-09-24T01:37:24.090Z,10.50
2022-09-24T01:39:55.477Z,10.50
2022-09-24T01:42:25.572Z,10.50
2022-09-24T01:44:58.281Z,10.50
2022-09-24T01:47:35.214Z,10.50
2022-09-24T01:50:05.806Z,10.50
2022-09-24T01:52:39.508Z,10.50
2022-09-24T01:55:11.435Z,10.50
2022-09-24T01:57:42.831Z,10.50
2022-09-24T02:00:15.291Z,10.50
2022-09-24T02:02:46.463Z,10.50
2022-09-24T02:05:21.107Z,10.50
2022-09-24T02:07:55.192Z,10.50
2022-09-24T02:10:23.124Z,10.50
2022-09-24T02:12:57.734Z,10.50
2022-09-24T02:15:32.605Z,10.50
2022-09-24T02:18:05.821Z,10.50
2022-09-24T02:20:36.260Z,10.50
2022-09-24T02:23:05.808Z,10.50
2022-09-24T02:25:39.335Z,10.50
2022-09-24T02:28:07.311Z,10.50
2022-09-24T02:30:41.854Z,10.50
2022-09-24T02:33:27.329Z,10.50
2022-09-24T02:35:55.391Z,10.50
2022-09-24T02:38:24.603Z,10.50
2022-09-24T02:40:53.351Z,10.50
2022-09-24T02:43:21.563Z,10.50
2022-09-24T02:45:51.398Z,10.50
2022-09-24T02:48:19.656Z,10.60
2022-09-24T02:50:47.791Z,10.50
2022-09-24T02:53:15.777Z,10.60
2022-09-24T02:55:43.745Z,10.50
2022-09-24T02:58:12.388Z,10.60
2022-09-24T03:00:40.428Z,10.60
2022-09-24T03:03:09.774Z,10.60
2022-09-24T03:05:37.795Z,10.60
2022-09-24T03:08:07.551Z,10.50
2022-09-24T03:10:35.980Z,10.60
2022-09-24T03:13:03.929Z,10.60
2022-09-24T03:15:32.014Z,10.60
2022-09-24T03:17:59.991Z,10.50
2022-09-24T03:20:29.363Z,10.50
2022-09-24T03:22:57.361Z,10.60
2022-09-24T03:25:26.635Z,10.50
2022-09-24T03:27:54.698Z,10.60
2022-09-24T03:30:40.235Z,10.50
2022-09-24T03:33:08.171Z,10.50
2022-09-24T03:35:37.487Z,10.50
2022-09-24T03:38:05.439Z,10.60
2022-09-24T03:40:33.428Z,10.60
2022-09-24T03:43:01.430Z,10.60
2022-09-24T03:45:29.413Z,10.50
2022-09-24T03:47:57.391Z,10.50
2022-09-24T03:50:25.931Z,10.50
2022-09-24T03:52:55.248Z,10.50
2022-09-24T03:55:23.210Z,10.50
2022-09-24T03:57:51.146Z,10.50
2022-09-24T04:00:19.320Z,10.50
2022-09-24T04:02:47.548Z,10.50
2022-09-24T04:05:15.623Z,10.50
2022-09-24T04:07:44.321Z,10.50
2022-09-24T04:10:13.861Z,10.50
2022-09-24T04:12:43.614Z,10.50
2022-09-24T04:15:12.167Z,10.50
2022-09-24T04:17:40.118Z,10.50
2022-09-24T04:20:09.096Z,10.50
2022-09-24T04:22:37.044Z,10.50
2022-09-24T04:25:05.375Z,10.50
2022-09-24T04:27:36.096Z,10.50
2022-09-24T04:30:04.158Z,10.50
2022-09-24T04:32:32.392Z,10.50
2022-09-24T04:35:04.130Z,10.50
2022-09-24T04:37:34.930Z,10.50
2022-09-24T04:40:03.374Z,10.50
2022-09-24T04:42:31.449Z,10.50
2022-09-24T04:45:01.041Z,10.50
2022-09-24T04:47:29.289Z,10.50
2022-09-24T04:49:57.228Z,10.50
2022-09-24T04:52:29.679Z,10.50
2022-09-24T04:54:58.075Z,10.50
2022-09-24T04:57:26.429Z,10.50
2022-09-24T04:59:55.477Z,10.50
2022-09-24T05:02:25.136Z,10.50
2022-09-24T05:04:53.191Z,10.50
2022-09-24T05:07:21.164Z,10.50
2022-09-24T05:09:49.153Z,10.50
2022-09-24T05:12:17.120Z,10.50
2022-09-24T05:14:45.090Z,10.50
2022-09-24T05:17:13.059Z,10.50
2022-09-24T05:19:42.409Z,10.50
2022-09-24T05:22:10.382Z,10.60
2022-09-24T05:24:38.398Z,10.60
2022-09-24T05:27:11.298Z,10.50
2022-09-24T05:29:40.448Z,10.60
2022-09-24T05:32:10.010Z,10.60
2022-09-24T05:34:38.243Z,10.60
2022-09-24T05:37:07.656Z,10.60
2022-09-24T05:39:35.785Z,10.60
2022-09-24T05:42:04.399Z,10.60
2022-09-24T05:44:32.741Z,10.70
2022-09-24T05:47:00.889Z,10.70
2022-09-24T05:49:28.909Z,10.70
2022-09-24T05:51:56.910Z,10.70
2022-09-24T05:54:26.431Z,10.70
2022-09-24T05:56:54.446Z,10.70
2022-09-24T05:59:22.403Z,10.70
2022-09-24T06:01:50.423Z,10.70
2022-09-24T06:04:18.415Z,10.70
2022-09-24T06:06:46.413Z,10.70
2022-09-24T06:09:14.652Z,10.80
2022-09-24T06:11:44.485Z,10.80
2022-09-24T06:14:13.278Z,10.80
2022-09-24T06:16:41.468Z,10.90
2022-09-24T06:19:09.567Z,10.90
2022-09-24T06:21:37.593Z,10.90
2022-09-24T06:24:05.902Z,10.90
2022-09-24T06:26:34.176Z,10.90
2022-09-24T06:29:05.196Z,10.90
2022-09-24T06:31:34.672Z,10.90
2022-09-24T06:34:03.792Z,11.00
2022-09-24T06:36:31.902Z,11.00
2022-09-24T06:39:00.150Z,11.00
2022-09-24T06:41:28.124Z,11.00
2022-09-24T06:43:56.092Z,11.10
2022-09-24T06:46:25.971Z,11.10
2022-09-24T06:48:55.204Z,11.10
2022-09-24T06:51:23.629Z,11.10
2022-09-24T06:53:52.505Z,11.10
2022-09-24T06:56:20.548Z,11.20
2022-09-24T06:58:48.521Z,11.20
2022-09-24T07:01:16.634Z,11.20
2022-09-24T07:03:46.055Z,11.30
2022-09-24T07:06:14.065Z,11.30
2022-09-24T07:08:42.267Z,11.30
2022-09-24T07:11:10.229Z,11.40
2022-09-24T07:13:38.208Z,11.40
2022-09-24T07:16:06.548Z,11.40
2022-09-24T07:18:34.559Z,11.50
2022-09-24T07:21:03.911Z,11.50
2022-09-24T07:23:31.875Z,11.50
2022-09-24T07:25:59.863Z,11.60
2022-09-24T07:28:27.865Z,11.60
2022-09-24T07:31:00.041Z,11.60
2022-09-24T07:33:28.257Z,11.70
2022-09-24T07:35:56.228Z,11.70
2022-09-24T07:38:26.952Z,11.70
2022-09-24T07:40:59.160Z,11.80
2022-09-24T07:43:27.965Z,11.80
2022-09-24T07:45:58.106Z,11.80
2022-09-24T07:48:26.197Z,11.90
2022-09-24T07:50:54.196Z,11.90
2022-09-24T07:53:22.488Z,11.90
2022-09-24T07:55:52.640Z,12.00
2022-09-24T07:58:20.668Z,12.00
2022-09-24T08:00:48.652Z,12.10
2022-09-24T08:03:18.264Z,12.20
2022-09-24T08:05:46.590Z,12.20
2022-09-24T08:08:15.193Z,12.20
2022-09-24T08:10:43.657Z,12.30
2022-09-24T08:13:13.044Z,12.40
2022-09-24T08:15:41.617Z,12.40
2022-09-24T08:18:10.637Z,12.50
2022-09-24T08:20:39.441Z,12.60
2022-09-24T08:23:10.536Z,12.60
2022-09-24T08:25:38.707Z,12.70
2022-09-24T08:28:08.155Z,12.80
2022-09-24T08:30:37.733Z,12.80
2022-09-24T08:33:06.697Z,12.90
2022-09-24T08:35:35.509Z,13.10
2022-09-24T08:38:03.550Z,13.10
2022-09-24T08:40:37.209Z,13.10
2022-09-24T08:43:18.359Z,13.20
2022-09-24T08:46:11.205Z,13.40
2022-09-24T08:48:43.257Z,13.60
2022-09-24T08:51:18.031Z,13.70
2022-09-24T08:53:53.803Z,13.90
2022-09-24T08:56:26.535Z,13.90
2022-09-24T08:58:59.668Z,14.00
2022-09-24T09:01:38.117Z,14.10
2022-09-24T09:04:21.012Z,14.20
2022-09-24T09:07:02.868Z,14.30
2022-09-24T09:09:41.457Z,14.40
2022-09-24T09:12:16.333Z,14.40
2022-09-24T09:14:51.806Z,14.40
2022-09-24T09:17:33.132Z,14.50
2022-09-24T09:20:06.558Z,14.50
2022-09-24T09:22:40.443Z,14.70
2022-09-24T09:25:19.758Z,14.70
2022-09-24T09:27:50.976Z,14.80
2022-09-24T09:30:21.816Z,14.90
2022-09-24T09:33:10.123Z,14.90
2022-09-24T09:35:47.198Z,14.90
2022-09-24T09:38:23.475Z,15.00
2022-09-24T09:40:59.945Z,15.10
2022-09-24T09:43:28.825Z,15.10
2022-09-24T09:46:07.582Z,15.20
2022-09-24T09:48:45.595Z,15.20
2022-09-24T09:51:22.550Z,15.20
2022-09-24T09:53:58.194Z,15.20
2022-09-24T09:56:28.698Z,15.20
2022-09-24T09:59:08.066Z,15.30
2022-09-24T10:01:40.577Z,15.30
2022-09-24T10:04:29.744Z,15.40
2022-09-24T10:07:07.060Z,15.50
2022-09-24T10:09:35.424Z,15.60
2022-09-24T10:12:16.216Z,15.60
2022-09-24T10:14:44.582Z,15.70
2022-09-24T10:17:18.339Z,15.70
2022-09-24T10:19:50.774Z,15.80
2022-09-24T10:22:23.250Z,15.90
2022-09-24T10:24:52.691Z,15.90
2022-09-24T10:27:24.775Z,15.90
2022-09-24T10:30:13.388Z,16.00
2022-09-24T10:32:42.067Z,16.00
2022-09-24T10:35:24.702Z,16.10
2022-09-24T10:37:54.003Z,16.20
2022-09-24T10:40:26.007Z,16.40
2022-09-24T10:42:58.318Z,16.50
2022-09-24T10:45:36.118Z,16.60
2022-09-24T10:48:11.970Z,16.70
2022-09-24T10:50:48.115Z,16.90
2022-09-24T10:53:19.568Z,17.00
2022-09-24T10:55:58.211Z,17.20
2022-09-24T10:58:42.051Z,17.30
2022-09-24T11:01:17.950Z,17.30
2022-09-24T11:04:20.747Z,17.40
2022-09-24T11:07:09.255Z,17.50
2022-09-24T11:09:48.209Z,17.60
2022-09-24T11:12:25.868Z,17.70
2022-09-24T11:15:11.846Z,17.90
2022-09-24T11:17:45.709Z,17.90
2022-09-24T11:20:23.241Z,18.00
2022-09-24T11:23:15.617Z,18.10
2022-09-24T11:25:51.664Z,18.20
2022-09-24T11:28:36.472Z,18.30
2022-09-24T11:31:13.358Z,18.30
2022-09-24T11:34:00.812Z,18.40
2022-09-24T11:36:45.613Z,18.60
2022-09-24T11:39:29.817Z,18.70
2022-09-24T11:42:10.382Z,18.70
2022-09-24T11:45:16.210Z,18.80
2022-09-24T11:48:08.190Z,18.90
2022-09-24T11:50:48.081Z,18.90
2022-09-24T11:53:24.262Z,19.00
2022-09-24T11:55:59.962Z,19.00
2022-09-24T11:58:31.280Z,19.10
2022-09-24T12:01:03.512Z,19.00
2022-09-24T12:03:39.513Z,19.00
2022-09-24T12:06:12.975Z,19.10
2022-09-24T12:08:46.153Z,19.10
2022-09-24T12:11:20.877Z,19.10
2022-09-24T12:13:53.844Z,19.10
2022-09-24T12:16:25.010Z,19.10
2022-09-24T12:18:57.877Z,19.20
2022-09-24T12:21:31.146Z,19.20
2022-09-24T12:24:05.863Z,19.10
2022-09-24T12:26:39.207Z,19.10
2022-09-24T12:29:39.516Z,19.10
2022-09-24T12:32:34.433Z,19.10
2022-09-24T12:35:11.265Z,19.10
2022-09-24T12:37:42.040Z,19.20
2022-09-24T12:40:29.719Z,19.20
2022-09-24T12:43:02.591Z,19.10
2022-09-24T12:45:31.057Z,19.10
2022-09-24T12:48:01.411Z,19.20
2022-09-24T12:50:32.114Z,19.20
2022-09-24T12:53:00.244Z,19.20
2022-09-24T12:55:31.107Z,19.20
2022-09-24T12:58:04.443Z,19.10
2022-09-24T13:00:39.689Z,19.20
2022-09-24T13:03:09.550Z,19.20
2022-09-24T13:05:49.126Z,19.20
2022-09-24T13:08:27.848Z,19.20
2022-09-24T13:10:58.770Z,19.20
2022-09-24T13:13:31.737Z,19.30
2022-09-24T13:16:03.426Z,19.20
2022-09-24T13:18:33.276Z,19.20
2022-09-24T13:21:03.566Z,19.10
2022-09-24T13:23:44.164Z,18.90
2022-09-24T13:26:26.393Z,18.90
2022-09-24T13:28:58.406Z,18.90
2022-09-24T13:31:36.780Z,18.90
2022-09-24T13:34:13.965Z,19.00
2022-09-24T13:36:46.701Z,19.10
2022-09-24T13:39:18.123Z,19.20
2022-09-24T13:41:54.362Z,19.30
2022-09-24T13:44:27.502Z,19.30
2022-09-24T13:47:01.682Z,19.40
2022-09-24T13:49:32.053Z,19.40
2022-09-24T13:52:09.757Z,19.40
2022-09-24T13:54:43.832Z,19.40
2022-09-24T13:57:16.227Z,19.40
2022-09-24T13:59:45.725Z,19.30
2022-09-24T14:02:27.865Z,19.20
2022-09-24T14:04:58.560Z,19.10
2022-09-24T14:07:28.527Z,18.90
2022-09-24T14:10:05.631Z,18.80
2022-09-24T14:12:33.914Z,18.60
2022-09-24T14:15:11.242Z,18.60
2022-09-24T14:17:39.188Z,18.50
2022-09-24T14:20:08.061Z,18.60
2022-09-24T14:22:40.399Z,18.70
2022-09-24T14:25:12.238Z,18.80
2022-09-24T14:27:44.805Z,18.80
2022-09-24T14:30:21.344Z,18.70
2022-09-24T14:32:54.179Z,18.60
2022-09-24T14:35:30.017Z,18.50
2022-09-24T14:38:04.460Z,18.40
2022-09-24T14:40:41.937Z,18.30
2022-09-24T14:43:18.912Z,18.20
2022-09-24T14:45:49.435Z,18.10
2022-09-24T14:48:28.584Z,18.00
2022-09-24T14:50:56.731Z,17.90
2022-09-24T14:53:34.654Z,17.80
2022-09-24T14:56:18.903Z,17.70
2022-09-24T14:58:46.872Z,17.70
2022-09-24T15:01:18.057Z,17.60
2022-09-24T15:03:49.977Z,17.60
2022-09-24T15:06:23.513Z,17.50
2022-09-24T15:09:01.485Z,17.50
2022-09-24T15:11:32.793Z,17.50
2022-09-24T15:14:03.009Z,17.40
2022-09-24T15:16:35.753Z,17.40
2022-09-24T15:19:19.852Z,17.40
2022-09-24T15:21:48.899Z,17.40
2022-09-24T15:24:17.168Z,17.40
2022-09-24T15:26:46.726Z,17.40
2022-09-24T15:29:24.801Z,17.40
2022-09-24T15:31:56.237Z,17.40
2022-09-24T15:34:24.267Z,17.30
2022-09-24T15:36:58.611Z,17.30
2022-09-24T15:39:28.145Z,17.30
2022-09-24T15:41:56.169Z,17.20
2022-09-24T15:44:31.217Z,17.20
2022-09-24T15:47:02.505Z,17.20
2022-09-24T15:49:31.323Z,17.20
2022-09-24T15:52:02.768Z,17.20
2022-09-24T15:54:30.714Z,17.20
2022-09-24T15:56:58.768Z,17.30
2022-09-24T15:59:28.263Z,17.30
2022-09-24T16:02:00.568Z,17.30
2022-09-24T16:04:30.239Z,17.30
2022-09-24T16:06:58.987Z,17.20
2022-09-24T16:09:26.961Z,17.20
2022-09-24T16:11:55.382Z,17.20
2022-09-24T16:14:23.323Z,17.10
2022-09-24T16:16:51.279Z,17.10
2022-09-24T16:19:19.228Z,17.10
2022-09-24T16:21:49.090Z,17.00
2022-09-24T16:24:17.059Z,16.90
2022-09-24T16:26:45.019Z,16.80
2022-09-24T16:29:13.074Z,16.70
2022-09-24T16:31:41.105Z,16.60
2022-09-24T16:34:09.140Z,16.60
2022-09-24T16:36:37.072Z,16.50
2022-09-24T16:39:06.505Z,16.40
2022-09-24T16:41:36.899Z,16.30
2022-09-24T16:44:05.666Z,16.20
2022-09-24T16:46:33.894Z,16.20
2022-09-24T16:49:01.885Z,16.10
2022-09-24T16:51:29.849Z,16.00
2022-09-24T16:53:58.079Z,16.00
2022-09-24T16:56:27.571Z,15.90
2022-09-24T16:58:55.724Z,15.80
2022-09-24T17:01:23.970Z,15.80
2022-09-24T17:03:53.035Z,15.70
2022-09-24T17:06:22.353Z,15.60
2022-09-24T17:09:08.250Z,15.60
2022-09-24T17:11:40.044Z,15.50
2022-09-24T17:14:08.669Z,15.40
2022-09-24T17:16:36.654Z,15.40
2022-09-24T17:19:04.661Z,15.40
2022-09-24T17:21:32.770Z,15.30
2022-09-24T17:24:00.764Z,15.30
2022-09-24T17:26:28.809Z,15.20
2022-09-24T17:28:58.184Z,15.20
2022-09-24T17:31:26.847Z,15.20
2022-09-24T17:33:58.188Z,15.10
2022-09-24T17:36:26.960Z,15.10
2022-09-24T17:38:56.128Z,15.00
2022-09-24T17:41:24.595Z,15.00
2022-09-24T17:43:53.350Z,14.90
2022-09-24T17:46:23.521Z,14.90
2022-09-24T17:48:54.557Z,14.80
2022-09-24T17:51:25.083Z,14.80
2022-09-24T17:53:54.836Z,14.70
2022-09-24T17:56:26.613Z,14.70
2022-09-24T17:58:56.791Z,14.70
2022-09-24T18:01:28.840Z,14.60
2022-09-24T18:03:58.406Z,14.60
2022-09-24T18:06:32.467Z,14.50
2022-09-24T18:09:02.173Z,14.40
2022-09-24T18:11:32.666Z,14.40
2022-09-24T18:14:02.188Z,14.40
2022-09-24T18:16:33.574Z,14.30
2022-09-24T18:19:03.134Z,14.30
2022-09-24T18:21:31.449Z,14.30
2022-09-24T18:24:01.371Z,14.20
2022-09-24T18:26:32.706Z,14.30
2022-09-24T18:29:03.833Z,14.20
2022-09-24T18:31:35.063Z,14.20
2022-09-24T18:34:06.836Z,14.20
2022-09-24T18:36:37.013Z,14.10
2022-09-24T18:39:06.620Z,14.00
2022-09-24T18:41:36.369Z,13.90
2022-09-24T18:44:04.504Z,13.90
2022-09-24T18:46:35.285Z,13.80
2022-09-24T18:49:03.885Z,13.80
2022-09-24T18:51:33.428Z,13.70
2022-09-24T18:54:02.986Z,13.70
2022-09-24T18:56:31.960Z,13.70
2022-09-24T18:59:04.750Z,13.70
2022-09-24T19:01:37.331Z,13.70
2022-09-24T19:04:06.093Z,13.60
2022-09-24T19:06:36.423Z,13.60
2022-09-24T19:09:05.870Z,13.60
2022-09-24T19:11:34.595Z,13.50
2022-09-24T19:14:03.127Z,13.60
2022-09-24T19:16:31.322Z,13.50
2022-09-24T19:19:01.752Z,13.50
2022-09-24T19:21:29.973Z,13.50
2022-09-24T19:24:00.253Z,13.50
2022-09-24T19:26:30.572Z,13.40
2022-09-24T19:28:59.127Z,13.40
2022-09-24T19:31:29.929Z,13.40
2022-09-24T19:33:58.660Z,13.30
2022-09-24T19:36:28.085Z,13.30
2022-09-24T19:38:56.404Z,13.30
2022-09-24T19:41:26.319Z,13.30
2022-09-24T19:43:56.812Z,13.30
2022-09-24T19:46:26.859Z,13.30
2022-09-24T19:48:56.343Z,13.30
2022-09-24T19:51:26.008Z,13.30
2022-09-24T19:53:56.980Z,13.40
2022-09-24T19:56:25.521Z,13.40
2022-09-24T19:58:56.160Z,13.30
2022-09-24T20:01:27.996Z,13.30
2022-09-24T20:03:58.931Z,13.30
2022-09-24T20:06:29.195Z,13.20
2022-09-24T20:08:59.332Z,13.20
2022-09-24T20:11:29.374Z,13.20
2022-09-24T20:13:57.920Z,13.20
2022-09-24T20:16:28.260Z,13.20
2022-09-24T20:18:58.013Z,13.20
2022-09-24T20:21:28.478Z,13.10
2022-09-24T20:24:03.722Z,13.10
2022-09-24T20:26:49.304Z,13.10
2022-09-24T20:29:19.857Z,13.10
2022-09-24T20:31:52.446Z,13.10
2022-09-24T20:34:22.278Z,13.10
2022-09-24T20:36:50.824Z,13.00
2022-09-24T20:39:23.357Z,13.00
2022-09-24T20:41:51.595Z,13.00
2022-09-24T20:44:23.039Z,12.90
2022-09-24T20:46:52.344Z,12.90
2022-09-24T20:49:23.143Z,12.90
2022-09-24T20:51:56.587Z,12.80
2022-09-24T20:54:28.309Z,12.80
2022-09-24T20:56:56.726Z,12.80
2022-09-24T20:59:25.554Z,12.80
2022-09-24T21:01:54.017Z,12.80
2022-09-24T21:04:22.537Z,12.70
2022-09-24T21:06:51.590Z,12.70
2022-09-24T21:09:27.605Z,12.70
2022-09-24T21:11:55.746Z,12.70
2022-09-24T21:14:24.063Z,12.60
2022-09-24T21:16:55.038Z,12.60
2022-09-24T21:19:23.092Z,12.60
2022-09-24T21:21:52.090Z,12.60
2022-09-24T21:24:21.041Z,12.60
2022-09-24T21:26:59.413Z,12.60
2022-09-24T21:29:27.649Z,12.60
2022-09-24T21:31:55.766Z,12.60
2022-09-24T21:34:23.814Z,12.60
2022-09-24T21:36:52.128Z,12.60
2022-09-24T21:39:23.109Z,12.70
2022-09-24T21:41:53.764Z,12.70
2022-09-24T21:44:23.211Z,12.70
2022-09-24T21:46:52.266Z,12.70
2022-09-24T21:49:21.096Z,12.70
2022-09-24T21:51:49.288Z,12.70
2022-09-24T21:54:19.913Z,12.70
2022-09-24T21:56:48.229Z,12.70
2022-09-24T21:59:34.850Z,12.70
2022-09-24T22:02:05.127Z,12.70
2022-09-24T22:04:33.683Z,12.70
2022-09-24T22:07:01.767Z,12.70
2022-09-24T22:09:29.811Z,12.70
2022-09-24T22:12:00.059Z,12.70
2022-09-24T22:14:28.770Z,12.60
2022-09-24T22:16:57.232Z,12.60
2022-09-24T22:19:26.687Z,12.50
2022-09-24T22:21:55.503Z,12.50
2022-09-24T22:24:23.585Z,12.50
2022-09-24T22:26:51.688Z,12.50
2022-09-24T22:29:19.987Z,12.50
2022-09-24T22:31:48.025Z,12.40
2022-09-24T22:34:33.576Z,12.50
2022-09-24T22:37:05.964Z,12.40
2022-09-24T22:39:35.304Z,12.40
2022-09-24T22:42:03.334Z,12.40
2022-09-24T22:44:31.323Z,12.40
2022-09-24T22:46:59.297Z,12.30
2022-09-24T22:49:27.397Z,12.30
2022-09-24T22:51:55.415Z,12.30
2022-09-24T22:54:25.357Z,12.30
2022-09-24T22:56:53.298Z,12.30
2022-09-24T22:59:21.257Z,12.30
2022-09-24T23:01:49.237Z,12.30
2022-09-24T23:04:17.248Z,12.30
2022-09-24T23:09:35.575Z,12.30
2022-09-24T23:12:03.799Z,12.30
2022-09-24T23:14:31.788Z,12.20
2022-09-24T23:16:59.773Z,12.30
2022-09-24T23:19:48.397Z,12.20
2022-09-24T23:22:16.734Z,12.20
2022-09-24T23:24:47.034Z,12.20
2022-09-24T23:27:16.629Z,12.20
2022-09-24T23:29:44.794Z,12.10
2022-09-24T23:32:13.125Z,12.10
2022-09-24T23:34:41.228Z,12.10
2022-09-24T23:37:10.749Z,12.00
2022-09-24T23:39:39.113Z,12.00
2022-09-24T23:42:09.168Z,12.00
2022-09-24T23:44:37.925Z,12.10
2022-09-24T23:47:05.955Z,12.00
2022-09-24T23:49:33.919Z,12.00
2022-09-24T23:52:02.281Z,12.00
2022-09-24T23:54:30.256Z,12.10
2022-09-24T23:56:58.186Z,12.00
2022-09-24T23:59:27.583Z,12.00
